Time;durP1;ratioP1;P1;durP2;ratioP2;P2;SDS_P1;SDS_P2;PMS_P1;PMS_P2;Temp;Humidity;BMP_temperature;BMP_pressure;BME280_temperature;BME280_humidity;BME280_pressure;Samples;Min_cycle;Max_cycle;Signal;HPM_P1;HPM_P2
2022/12/22 03:26:41;;;;;;;202.00;125.25;;;;;;;-1.31;68.29;95103.94;5115952;28;20290;-71
2022/12/22 03:29:08;;;;;;;141.40;93.65;;;;;;;-1.36;68.56;95096.66;5115587;28;20643;-71
2022/12/22 03:31:34;;;;;;;83.13;60.05;;;;;;;-1.29;68.47;95102.59;5115244;28;20227;-72
2022/12/22 03:34:03;;;;;;;114.95;81.25;;;;;;;-1.26;68.74;95095.81;5115532;28;20551;-71
2022/12/22 03:36:30;;;;;;;116.38;80.38;;;;;;;-1.25;68.87;95102.84;5115468;28;20203;-71
2022/12/22 03:38:57;;;;;;;115.00;80.13;;;;;;;-1.21;68.42;95101.19;5116367;28;20187;-71
2022/12/22 03:46:48;;;;;;;83.10;61.25;;;;;;;-1.16;68.07;95103.06;5115527;28;20210;-72
2022/12/22 03:49:18;;;;;;;49.80;43.05;;;;;;;-1.14;67.98;95106.31;5115839;28;20211;-72
2022/12/22 03:51:46;;;;;;;42.22;38.13;;;;;;;-1.12;68.08;95104.16;5115411;28;20203;-71
2022/12/22 03:54:15;;;;;;;42.75;38.33;;;;;;;-1.12;68.08;95099.53;5115612;28;20187;-72
2022/12/22 03:56:43;;;;;;;40.53;36.50;;;;;;;-1.11;68.04;95097.66;5115337;28;20192;-71
2022/12/22 03:59:10;;;;;;;65.38;52.60;;;;;;;-1.08;68.22;95102.50;5115006;28;20211;-71
2022/12/22 04:01:38;;;;;;;62.75;50.55;;;;;;;-1.09;68.26;95093.59;5115165;28;20199;-72
2022/12/22 04:04:05;;;;;;;63.13;51.55;;;;;;;-1.09;68.38;95095.44;5115292;28;20187;-72
2022/12/22 04:06:33;;;;;;;44.83;40.05;;;;;;;-1.11;67.83;95097.66;5115182;28;20199;-71
2022/12/22 04:09:00;;;;;;;48.63;43.50;;;;;;;-1.11;68.35;95093.03;5115109;28;20211;-71
2022/12/22 04:14:12;;;;;;;52.35;45.67;;;;;;;-1.29;67.46;95093.66;5115282;28;20183;-71
2022/12/22 04:16:39;;;;;;;48.25;43.03;;;;;;;-1.42;67.66;95097.75;5115209;28;20188;-71
2022/12/22 04:19:06;;;;;;;47.13;42.10;;;;;;;-1.41;67.99;95093.19;5114953;28;20535;-71
2022/12/22 04:21:35;;;;;;;47.45;42.53;;;;;;;-1.37;68.20;95094.25;5114832;28;20248;-71
2022/12/22 04:24:02;;;;;;;48.80;43.67;;;;;;;-1.38;68.70;95092.59;5116058;28;20190;-72
2022/12/22 04:26:29;;;;;;;47.17;42.20;;;;;;;-1.35;68.92;95094.75;5115982;28;20195;-72
2022/12/22 04:28:56;;;;;;;47.28;42.40;;;;;;;-1.28;69.20;95093.38;5114765;28;20215;-71
2022/12/22 04:31:23;;;;;;;47.95;42.58;;;;;;;-1.27;68.91;95097.72;5115083;28;20199;-71
2022/12/22 04:33:50;;;;;;;45.88;41.22;;;;;;;-1.27;68.58;95092.31;5115771;28;20184;-71
2022/12/22 04:36:17;;;;;;;46.50;41.55;;;;;;;-1.27;68.37;95089.59;5114598;28;20208;-71
2022/12/22 04:38:46;;;;;;;44.88;40.17;;;;;;;-1.27;68.70;95089.59;5114780;28;20282;-72
2022/12/22 04:41:12;;;;;;;45.40;40.55;;;;;;;-1.29;68.65;95094.47;5114162;28;20200;-72
2022/12/22 04:43:39;;;;;;;44.92;40.22;;;;;;;-1.28;68.35;95093.38;5115246;28;20180;-71
2022/12/22 04:46:06;;;;;;;46.67;41.78;;;;;;;-1.28;68.55;95096.09;5115067;28;20203;-71
2022/12/22 04:48:33;;;;;;;44.83;40.10;;;;;;;-1.30;68.38;95094.75;5115144;28;20203;-71
2022/12/22 04:51:01;;;;;;;46.45;41.35;;;;;;;-1.29;68.53;95089.06;5114474;28;20200;-72
2022/12/22 04:53:29;;;;;;;46.08;41.45;;;;;;;-1.26;68.24;95087.69;5114845;28;20523;-71
2022/12/22 04:55:59;;;;;;;45.10;40.30;;;;;;;-1.26;68.59;95093.13;5115048;28;20508;-71
2022/12/22 04:58:26;;;;;;;43.83;39.40;;;;;;;-1.21;68.88;95083.06;5115427;28;20248;-71
2022/12/22 05:00:53;;;;;;;46.00;41.15;;;;;;;-1.21;68.66;95085.75;5114400;28;20205;-71
2022/12/22 05:03:20;;;;;;;45.47;40.80;;;;;;;-1.21;68.83;95085.75;5114319;28;20533;-71
2022/12/22 05:05:47;;;;;;;46.78;41.92;;;;;;;-1.25;68.23;95079.28;5114526;28;20192;-71
2022/12/22 05:08:14;;;;;;;51.85;45.45;;;;;;;-1.32;68.24;95081.50;5115031;28;20204;-71
2022/12/22 05:10:41;;;;;;;52.00;46.50;;;;;;;-1.35;68.44;95084.75;5115302;28;20207;-70
2022/12/22 05:13:09;;;;;;;51.80;46.25;;;;;;;-1.33;68.55;95090.72;5115305;28;20195;-72
2022/12/22 05:15:36;;;;;;;53.75;47.50;;;;;;;-1.33;68.33;95090.72;5115244;28;20202;-73
2022/12/22 05:18:04;;;;;;;53.35;47.55;;;;;;;-1.33;68.82;95092.59;5115419;28;20195;-72
2022/12/22 05:20:31;;;;;;;50.78;45.38;;;;;;;-1.31;68.44;95103.94;5114348;28;20200;-70
2022/12/22 05:22:58;;;;;;;50.03;44.55;;;;;;;-1.30;68.45;95102.88;5114678;28;20235;-70
2022/12/22 05:25:25;;;;;;;47.67;42.22;;;;;;;-1.30;68.57;95092.84;5114627;28;20199;-70
2022/12/22 05:27:52;;;;;;;45.92;41.13;;;;;;;-1.28;68.66;95112.31;5114819;28;20203;-70
2022/12/22 05:30:20;;;;;;;46.30;41.45;;;;;;;-1.25;68.54;95114.47;5114293;28;20200;-70
2022/12/22 05:32:47;;;;;;;44.17;39.47;;;;;;;-1.24;68.85;95104.44;5114987;28;20199;-70
2022/12/22 05:35:14;;;;;;;42.97;38.53;;;;;;;-1.29;68.53;95102.59;5114797;28;20180;-70
2022/12/22 05:37:41;;;;;;;43.08;38.60;;;;;;;-1.33;68.48;95100.72;5114522;28;20195;-70
2022/12/22 05:40:09;;;;;;;42.20;37.88;;;;;;;-1.27;69.05;95100.44;5114318;28;20196;-70
2022/12/22 05:42:36;;;;;;;52.72;45.03;;;;;;;-1.23;68.69;95101.50;5114819;28;20195;-71
2022/12/22 05:45:11;;;;;;;50.25;44.95;;;;;;;-1.23;68.96;95103.38;5113934;28;20207;-70
2022/12/22 05:47:39;;;;;;;69.30;62.20;;;;;;;-1.25;68.98;95103.66;5114670;28;20199;-70
2022/12/22 05:50:08;;;;;;;52.85;47.08;;;;;;;-1.26;69.05;95101.22;5115113;28;20204;-70
2022/12/22 05:52:35;;;;;;;50.97;45.70;;;;;;;-1.29;68.96;95099.06;5114746;28;20484;-70
2022/12/22 05:55:02;;;;;;;54.70;45.65;;;;;;;-1.31;69.11;95095.81;5117145;28;20201;-70
2022/12/22 05:57:29;;;;;;;49.95;44.65;;;;;;;-1.35;69.52;95100.19;5118531;28;20188;-69
2022/12/22 05:59:55;;;;;;;45.47;40.60;;;;;;;-1.37;69.72;95096.97;5118214;28;20600;-70
2022/12/22 06:02:22;;;;;;;48.40;42.15;;;;;;;-1.30;69.30;95097.47;5117867;28;20270;-70
2022/12/22 06:04:50;;;;;;;52.85;47.35;;;;;;;-1.25;69.56;95097.44;5118367;28;20196;-70
2022/12/22 06:07:17;;;;;;;73.78;65.90;;;;;;;-1.19;69.43;95103.66;5118424;28;20195;-70
2022/12/22 06:09:44;;;;;;;53.33;47.50;;;;;;;-1.23;69.19;95097.97;5117490;28;20226;-70
2022/12/22 06:12:10;;;;;;;51.85;45.97;;;;;;;-1.27;68.93;95097.72;5118443;28;20184;-70
2022/12/22 06:14:37;;;;;;;51.30;44.33;;;;;;;-1.26;68.88;95103.94;5118234;28;20180;-70
2022/12/22 06:17:04;;;;;;;50.63;45.10;;;;;;;-1.30;68.78;95105.59;5117946;28;20184;-70
2022/12/22 06:19:31;;;;;;;51.50;46.20;;;;;;;-1.29;69.02;95105.28;5116983;28;20608;-70
2022/12/22 06:21:59;;;;;;;50.88;45.67;;;;;;;-1.27;68.80;95105.84;5117120;28;20280;-70
2022/12/22 06:24:26;;;;;;;51.65;46.15;;;;;;;-1.24;68.68;95104.44;5117366;28;20263;-70
2022/12/22 06:26:53;;;;;;;50.13;44.70;;;;;;;-1.20;69.06;95108.22;5117949;28;20210;-70
2022/12/22 06:29:19;;;;;;;51.75;46.30;;;;;;;-1.18;69.28;95113.38;5117034;28;20639;-70
2022/12/22 06:31:46;;;;;;;51.65;46.30;;;;;;;-1.11;69.23;95114.69;5117946;28;20252;-70
2022/12/22 06:34:16;;;;;;;50.22;43.97;;;;;;;-1.06;68.89;95111.13;5118140;28;20192;-70
2022/12/22 06:36:43;;;;;;;50.92;45.47;;;;;;;-1.03;69.22;95111.41;5116927;28;20204;-70
2022/12/22 06:39:12;;;;;;;53.17;47.42;;;;;;;-0.97;69.31;95113.00;5116884;28;20196;-70
2022/12/22 06:44:23;;;;;;;54.58;46.55;;;;;;;-0.88;68.91;95123.22;5117359;28;20202;-70
2022/12/22 06:46:49;;;;;;;50.60;45.33;;;;;;;-0.85;68.63;95118.06;5116446;28;20195;-70
2022/12/22 06:49:16;;;;;;;53.45;47.70;;;;;;;-0.81;68.84;95121.84;5116816;28;20220;-70
2022/12/22 06:51:43;;;;;;;53.40;47.33;;;;;;;-0.75;69.12;95111.78;5117426;28;20596;-70
2022/12/22 06:54:12;;;;;;;54.67;48.83;;;;;;;-0.72;69.31;95122.06;5117497;28;20187;-70
2022/12/22 06:56:38;;;;;;;61.42;54.72;;;;;;;-0.70;68.86;95114.47;5116470;28;20620;-70
2022/12/22 06:59:05;;;;;;;64.93;57.83;;;;;;;-0.63;68.89;95119.56;5117351;28;20184;-70
2022/12/22 07:01:32;;;;;;;61.55;54.67;;;;;;;-0.58;69.13;95123.06;5117156;28;20190;-71
2022/12/22 07:03:59;;;;;;;61.13;54.92;;;;;;;-0.53;68.85;95125.72;5116373;28;20188;-70
2022/12/22 07:06:25;;;;;;;62.38;55.72;;;;;;;-0.46;68.96;95127.31;5117240;27;20179;-70
2022/12/22 07:08:52;;;;;;;72.15;64.68;;;;;;;-0.39;69.38;95120.47;5116149;28;20215;-70
2022/12/22 07:11:21;;;;;;;76.22;68.72;;;;;;;-0.32;68.86;95126.41;5116013;28;20269;-70
2022/12/22 07:13:48;;;;;;;74.05;66.40;;;;;;;-0.25;68.53;95117.94;5116797;28;20180;-70
2022/12/22 07:16:15;;;;;;;68.07;60.97;;;;;;;-0.18;68.84;95114.88;5115818;28;20604;-69
2022/12/22 07:18:42;;;;;;;77.47;70.05;;;;;;;-0.11;68.54;95123.50;5116927;28;20191;-71
2022/12/22 07:21:11;;;;;;;78.53;70.78;;;;;;;-0.03;68.59;95117.50;5115779;28;20204;-69
2022/12/22 07:23:38;;;;;;;80.18;72.32;;;;;;;0.02;68.88;95116.63;5116313;28;20231;-70
2022/12/22 07:26:06;;;;;;;79.68;71.47;;;;;;;0.06;69.36;95109.53;5116976;28;20264;-70
2022/12/22 07:28:35;;;;;;;86.82;78.32;;;;;;;0.13;68.90;95112.72;5116370;28;20208;-69
2022/12/22 07:31:02;;;;;;;82.85;74.55;;;;;;;0.17;69.14;95111.84;5115807;28;20213;-69
2022/12/22 07:33:29;;;;;;;83.68;75.40;;;;;;;0.24;68.85;95109.63;5116693;28;20653;-69
2022/12/22 07:36:03;;;;;;;84.30;76.03;;;;;;;0.34;69.00;95113.34;5115653;28;20203;-69
2022/12/22 07:38:32;;;;;;;79.50;71.57;;;;;;;0.40;68.49;95106.75;5115929;28;20656;-70
2022/12/22 07:40:59;;;;;;;79.30;71.47;;;;;;;0.50;68.65;95108.53;5116629;28;20183;-71
2022/12/22 07:43:25;;;;;;;79.60;71.82;;;;;;;0.68;68.50;95124.88;5116302;28;20190;-73
2022/12/22 07:45:53;;;;;;;84.93;76.68;;;;;;;0.85;68.25;95118.19;5115346;28;20199;-71
2022/12/22 07:51:06;;;;;;;72.45;65.07;;;;;;;1.00;67.50;95125.34;5115153;28;20263;-71
2022/12/22 07:53:34;;;;;;;73.97;66.15;;;;;;;1.16;67.28;95121.31;5115062;28;20203;-71
2022/12/22 07:56:04;;;;;;;72.65;65.63;;;;;;;1.30;67.15;95113.25;5116273;28;20500;-71
2022/12/22 07:58:31;;;;;;;81.43;73.10;;;;;;;1.36;66.21;95103.94;5116263;28;20194;-72
2022/12/22 08:01:03;;;;;;;76.53;69.13;;;;;;;1.44;66.35;95109.50;5114884;28;20207;-71
2022/12/22 08:03:30;;;;;;;72.82;65.68;;;;;;;1.55;65.71;95107.44;5115930;28;20180;-71
2022/12/22 08:05:56;;;;;;;65.68;59.30;;;;;;;1.67;65.10;95107.00;5115684;28;20199;-72
2022/12/22 08:08:23;;;;;;;67.57;60.50;;;;;;;1.83;65.38;95099.41;5115264;28;20194;-72
2022/12/22 08:10:50;;;;;;;69.28;62.40;;;;;;;1.95;64.36;95104.38;5115120;28;20207;-72
2022/12/22 08:13:19;;;;;;;66.03;59.47;;;;;;;2.08;64.38;95103.63;5115480;28;20196;-72
2022/12/22 08:15:45;;;;;;;69.90;62.97;;;;;;;2.20;63.45;95097.72;5114460;28;20211;-72
2022/12/22 08:18:13;;;;;;;75.47;68.13;;;;;;;2.33;63.74;95092.28;5115561;28;20184;-72
2022/12/22 08:20:40;;;;;;;76.88;69.43;;;;;;;2.41;62.93;95097.03;5115622;28;20175;-72
2022/12/22 08:23:07;;;;;;;86.85;78.47;;;;;;;2.51;63.09;95095.25;5114292;28;20295;-72
2022/12/22 08:25:34;;;;;;;96.53;86.82;;;;;;;2.64;63.03;95097.16;5116034;28;20180;-72
2022/12/22 08:28:02;;;;;;;93.20;83.80;;;;;;;2.79;62.58;95102.28;5114962;28;20195;-71
2022/12/22 08:30:29;;;;;;;86.93;78.38;;;;;;;2.95;62.29;95108.28;5115970;28;20212;-72
2022/12/22 08:32:56;;;;;;;75.63;68.15;;;;;;;3.06;61.89;95106.94;5114858;28;20203;-72
2022/12/22 08:35:27;;;;;;;72.53;65.18;;;;;;;3.16;61.78;95108.66;5115280;28;20204;-72
2022/12/22 08:37:54;;;;;;;86.20;77.40;;;;;;;3.28;61.95;95108.13;5114877;28;20203;-72
2022/12/22 08:40:23;;;;;;;105.57;94.97;;;;;;;3.33;61.79;95108.81;5114320;28;20204;-72
2022/12/22 08:42:51;;;;;;;102.43;92.38;;;;;;;3.37;61.67;95098.09;5115777;28;20194;-72
2022/12/22 08:45:18;;;;;;;103.90;94.07;;;;;;;3.45;61.97;95083.75;5115389;28;20603;-72
2022/12/22 08:47:45;;;;;;;97.68;88.20;;;;;;;3.59;61.60;95086.44;5115283;28;20218;-72
2022/12/22 08:50:12;;;;;;;97.18;87.55;;;;;;;3.66;61.40;95081.34;5114122;28;20227;-71
2022/12/22 08:52:41;;;;;;;99.28;89.63;;;;;;;3.71;60.12;95088.63;5114879;28;20256;-71
2022/12/22 08:55:08;;;;;;;101.57;91.72;;;;;;;3.78;60.42;95084.34;5115996;28;20184;-73
2022/12/22 08:57:36;;;;;;;97.95;88.70;;;;;;;3.95;60.41;95080.13;5114647;28;20200;-74
2022/12/22 09:00:04;;;;;;;105.00;95.18;;;;;;;4.09;60.71;95075.41;5114785;28;20649;-73
2022/12/22 09:02:32;;;;;;;112.90;102.15;;;;;;;4.17;60.24;95066.47;5114842;28;20196;-73
2022/12/22 09:04:58;;;;;;;112.55;101.78;;;;;;;4.21;59.89;95066.63;5114515;28;20199;-72
2022/12/22 09:07:25;;;;;;;106.47;96.22;;;;;;;4.31;59.88;95063.66;5114654;28;20210;-71
2022/12/22 09:09:56;;;;;;;93.78;84.68;;;;;;;4.43;59.48;95054.88;5115450;28;20530;-72
2022/12/22 09:12:23;;;;;;;88.32;80.13;;;;;;;4.56;58.56;95056.69;5114693;28;20226;-72
2022/12/22 09:14:49;;;;;;;83.85;76.00;;;;;;;4.67;57.86;95052.56;5115307;28;20188;-71
2022/12/22 09:17:16;;;;;;;67.45;60.97;;;;;;;4.75;56.74;95042.78;5115275;28;20199;-72
2022/12/22 09:19:43;;;;;;;60.85;54.75;;;;;;;4.90;57.51;95045.09;5115258;28;20176;-73
2022/12/22 09:22:11;;;;;;;64.07;57.47;;;;;;;5.03;56.14;95041.41;5114931;28;20228;-72
2022/12/22 09:24:38;;;;;;;62.40;55.78;;;;;;;5.25;56.17;95039.69;5114328;28;20199;-71
2022/12/22 09:27:07;;;;;;;63.60;57.08;;;;;;;5.36;55.57;95035.53;5114492;28;20207;-72
2022/12/22 09:29:35;;;;;;;61.10;54.60;;;;;;;5.58;54.08;95034.56;5118978;28;20219;-72
2022/12/22 09:32:01;;;;;;;58.58;52.50;;;;;;;5.77;53.79;95043.28;5118370;28;20200;-71
2022/12/22 09:34:28;;;;;;;59.47;53.08;;;;;;;6.01;53.53;95036.50;5117759;28;20192;-71
2022/12/22 09:36:55;;;;;;;56.15;50.63;;;;;;;6.26;52.38;95030.16;5116898;28;20203;-72
2022/12/22 09:39:22;;;;;;;56.28;50.28;;;;;;;6.59;51.86;95028.78;5117628;28;20195;-71
2022/12/22 09:41:51;;;;;;;57.75;51.05;;;;;;;6.88;51.60;95039.78;5117976;28;20203;-72
2022/12/22 09:44:24;;;;;;;54.88;49.35;;;;;;;7.16;50.64;95034.63;5118057;28;20249;-71
2022/12/22 09:46:51;;;;;;;54.58;48.65;;;;;;;7.31;49.27;95032.44;5117822;28;20199;-71
2022/12/22 09:49:19;;;;;;;56.55;50.55;;;;;;;7.40;48.90;95028.47;5117591;28;20200;-71
2022/12/22 09:51:48;;;;;;;60.25;53.85;;;;;;;7.60;48.51;95023.34;5117691;28;20504;-72
2022/12/22 09:54:15;;;;;;;57.55;51.55;;;;;;;7.74;47.66;95021.16;5117772;28;20196;-71
2022/12/22 09:56:43;;;;;;;54.63;49.03;;;;;;;7.86;46.95;95014.91;5117525;28;20192;-73
2022/12/22 09:59:11;;;;;;;50.97;45.65;;;;;;;7.91;46.66;95015.47;5117371;28;20199;-72
2022/12/22 10:01:56;;;;;;;53.88;48.38;;;;;;;8.01;45.88;95008.78;5117377;28;20191;-71
2022/12/22 10:04:33;;;;;;;56.45;50.63;;;;;;;8.19;46.44;94995.66;5117264;28;20192;-72
2022/12/22 10:07:03;;;;;;;56.88;51.03;;;;;;;8.23;46.20;94995.78;5117471;28;20282;-72
2022/12/22 10:09:31;;;;;;;59.08;53.20;;;;;;;8.06;45.44;94994.84;5116977;28;20203;-72
2022/12/22 10:12:00;;;;;;;59.38;53.38;;;;;;;8.09;46.46;94983.16;5116334;28;20920;-71
2022/12/22 10:14:33;;;;;;;54.78;49.05;;;;;;;8.06;45.84;94983.03;5117084;28;20229;-72
2022/12/22 10:17:18;;;;;;;53.70;48.28;;;;;;;7.99;46.16;94975.38;5116914;28;20650;-71
2022/12/22 10:19:45;;;;;;;56.78;51.00;;;;;;;7.89;46.37;94981.28;5117374;28;20196;-71
2022/12/22 10:22:21;;;;;;;59.70;53.70;;;;;;;7.69;46.15;94971.91;5117061;28;20243;-72
2022/12/22 10:24:48;;;;;;;63.15;56.85;;;;;;;7.46;46.50;94968.72;5117167;28;20196;-72
2022/12/22 10:27:15;;;;;;;62.50;56.17;;;;;;;7.24;46.77;94961.63;5117583;28;20208;-71
2022/12/22 10:29:42;;;;;;;62.83;56.53;;;;;;;7.07;47.66;94956.28;5117765;28;20211;-72
2022/12/22 10:32:12;;;;;;;64.72;58.22;;;;;;;6.96;48.15;94959.41;5117802;28;20210;-71
2022/12/22 10:34:58;;;;;;;65.55;58.92;;;;;;;6.78;48.22;94951.63;5117771;28;20192;-71
2022/12/22 10:37:31;;;;;;;64.40;58.03;;;;;;;6.59;48.44;94952.03;5118229;27;20211;-72
2022/12/22 10:39:58;;;;;;;65.28;58.60;;;;;;;6.56;48.82;94952.69;5117085;28;20202;-72
2022/12/22 10:42:25;;;;;;;62.95;56.72;;;;;;;6.49;48.95;94948.53;5117429;28;20198;-72
2022/12/22 10:44:51;;;;;;;63.65;57.15;;;;;;;6.38;48.79;94943.75;5118413;28;20177;-72
2022/12/22 10:47:19;;;;;;;65.10;58.78;;;;;;;6.36;49.45;94933.16;5117831;28;20604;-72
2022/12/22 10:49:49;;;;;;;65.45;58.95;;;;;;;6.32;49.72;94932.19;5117772;28;20583;-72
2022/12/22 10:52:18;;;;;;;66.50;59.78;;;;;;;6.30;50.20;94928.16;5117297;28;20196;-71
2022/12/22 10:54:46;;;;;;;65.28;58.78;;;;;;;6.31;49.88;94925.09;5117282;28;20517;-71
2022/12/22 10:57:28;;;;;;;64.80;58.38;;;;;;;6.34;49.49;94929.91;5117652;28;20204;-71
2022/12/22 10:59:57;;;;;;;68.80;61.88;;;;;;;6.37;49.61;94929.25;5117668;28;20187;-71
2022/12/22 11:02:30;;;;;;;66.80;60.10;;;;;;;6.41;50.21;94926.66;5117569;28;20204;-71
2022/12/22 11:05:05;;;;;;;65.55;58.85;;;;;;;6.42;49.64;94923.59;5116912;28;20203;-72
2022/12/22 11:07:34;;;;;;;69.05;61.88;;;;;;;6.44;49.68;94912.31;5117790;28;20217;-71
2022/12/22 11:10:01;;;;;;;67.00;59.95;;;;;;;6.48;49.69;94914.06;5117541;28;20231;-71
2022/12/22 11:12:37;;;;;;;67.30;60.60;;;;;;;6.60;50.06;94915.28;5118777;28;20187;-71
2022/12/22 11:15:10;;;;;;;70.10;62.78;;;;;;;6.87;50.52;94905.78;5118135;28;20179;-71
2022/12/22 11:17:44;;;;;;;68.68;61.55;;;;;;;7.29;48.84;94905.75;5117580;28;20192;-72
2022/12/22 11:20:32;;;;;;;69.45;62.15;;;;;;;7.84;47.81;94893.59;5117737;28;20196;-71
2022/12/22 11:23:02;;;;;;;68.47;61.38;;;;;;;8.51;47.56;94897.84;5118023;28;20232;-71
2022/12/22 11:25:35;;;;;;;70.15;62.92;;;;;;;9.01;45.76;94888.41;5117968;28;20184;-71
2022/12/22 11:28:13;;;;;;;71.28;63.88;;;;;;;9.52;44.76;94887.91;5117154;28;20199;-72
2022/12/22 11:30:46;;;;;;;74.85;67.18;;;;;;;10.53;42.89;94886.63;5116963;28;20211;-71
2022/12/22 11:33:29;;;;;;;73.55;65.85;;;;;;;11.78;39.25;94892.13;5116493;28;20220;-71
2022/12/22 11:36:03;;;;;;;73.85;66.35;;;;;;;12.87;36.69;94877.84;5116594;28;20200;-71
2022/12/22 11:38:41;;;;;;;75.07;67.38;;;;;;;13.64;35.36;94878.53;5116433;28;20257;-72
2022/12/22 11:41:16;;;;;;;73.70;66.15;;;;;;;13.72;34.81;94874.69;5115981;28;20197;-71
2022/12/22 11:43:57;;;;;;;73.43;66.07;;;;;;;13.53;34.88;94870.09;5116750;28;20528;-71
2022/12/22 11:46:31;;;;;;;79.38;71.18;;;;;;;13.39;35.03;94867.16;5117337;28;20195;-71
2022/12/22 11:49:16;;;;;;;77.57;69.63;;;;;;;13.30;35.24;94866.63;5116283;28;20192;-71
2022/12/22 11:52:00;;;;;;;77.50;69.55;;;;;;;13.26;35.02;94861.06;5116568;28;20207;-71
2022/12/22 11:54:53;;;;;;;76.88;68.97;;;;;;;13.70;34.58;94868.72;5116059;28;20245;-72
2022/12/22 11:57:27;;;;;;;80.18;72.30;;;;;;;13.95;34.28;94864.28;5113775;28;20210;-72
2022/12/22 12:00:00;;;;;;;77.20;69.50;;;;;;;13.85;34.44;94859.41;5099393;28;20204;-71
2022/12/22 12:02:55;;;;;;;76.57;68.65;;;;;;;13.69;34.86;94854.09;5117760;28;20187;-71
2022/12/22 12:05:42;;;;;;;74.13;66.25;;;;;;;13.18;34.63;94851.81;5092099;28;20268;-72
2022/12/22 12:08:21;;;;;;;72.95;65.18;;;;;;;13.13;35.12;94852.13;5117792;28;20183;-72
2022/12/22 12:10:51;;;;;;;72.25;63.25;;;;;;;13.73;34.57;94854.13;5117268;28;20650;-73
2022/12/22 12:13:24;;;;;;;69.47;61.30;;;;;;;14.37;33.69;94842.88;5117782;28;20183;-72
2022/12/22 12:15:54;;;;;;;70.18;61.03;;;;;;;14.29;33.03;94838.44;5117756;28;20202;-73
2022/12/22 12:18:36;;;;;;;67.65;59.22;;;;;;;13.39;33.96;94837.47;5118207;28;20179;-73
2022/12/22 12:21:16;;;;;;;67.30;60.03;;;;;;;12.54;35.42;94845.31;5117813;28;20176;-72
2022/12/22 12:24:16;;;;;;;66.13;58.92;;;;;;;11.76;37.69;94842.78;5117317;28;20233;-73
2022/12/22 12:26:48;;;;;;;68.30;60.88;;;;;;;11.22;38.47;94842.84;5115893;28;20544;-73
2022/12/22 12:29:17;;;;;;;69.32;61.88;;;;;;;10.98;39.42;94838.41;5116353;28;20191;-72
2022/12/22 12:31:47;;;;;;;70.03;62.03;;;;;;;10.72;39.74;94839.81;5116520;28;20272;-72
2022/12/22 12:34:16;;;;;;;68.35;60.88;;;;;;;10.41;40.82;94835.13;5117244;28;20183;-73
2022/12/22 12:36:47;;;;;;;69.30;61.95;;;;;;;10.20;41.23;94834.56;5117056;28;20180;-72
2022/12/22 12:39:20;;;;;;;73.60;62.25;;;;;;;10.06;40.87;94838.59;5116653;28;20204;-72
2022/12/22 12:41:55;;;;;;;71.40;63.60;;;;;;;10.01;41.13;94830.56;5117090;28;20195;-72
2022/12/22 12:44:25;;;;;;;71.45;63.08;;;;;;;9.98;41.43;94833.25;5116942;28;20175;-73
2022/12/22 12:47:14;;;;;;;75.72;63.90;;;;;;;9.94;42.26;94826.84;5116877;28;20264;-73
2022/12/22 12:49:58;;;;;;;71.63;63.00;;;;;;;9.81;42.39;94831.66;5116343;28;20200;-73
2022/12/22 12:53:07;;;;;;;72.25;64.35;;;;;;;9.64;43.79;94830.00;5117229;28;20681;-73
2022/12/22 12:55:53;;;;;;;74.90;66.70;;;;;;;9.51;44.25;94828.47;5106614;28;20277;-74
2022/12/22 12:58:49;;;;;;;72.85;65.05;;;;;;;9.44;44.55;94828.25;5116548;28;20191;-72
2022/12/22 13:01:54;;;;;;;78.03;65.55;;;;;;;9.40;44.00;94822.66;5099950;28;20240;-72
2022/12/22 13:05:02;;;;;;;72.93;65.07;;;;;;;9.31;44.40;94824.78;5120462;28;20630;-73
2022/12/22 13:08:07;;;;;;;74.88;63.35;;;;;;;9.22;44.48;94824.13;5121249;28;20209;-72
2022/12/22 13:10:37;;;;;;;73.57;65.30;;;;;;;9.12;45.48;94828.19;5120964;28;20203;-72
2022/12/22 13:13:04;;;;;;;75.63;64.07;;;;;;;9.06;45.91;94829.56;5120988;28;20596;-72
2022/12/22 13:15:32;;;;;;;77.93;69.03;;;;;;;9.00;46.01;94834.50;5120837;28;20249;-72
2022/12/22 13:18:00;;;;;;;90.68;81.32;;;;;;;9.01;45.43;94833.38;5121197;28;20184;-72
2022/12/22 13:20:29;;;;;;;87.55;78.88;;;;;;;9.00;45.73;94822.72;5121095;28;20180;-72
2022/12/22 13:22:58;;;;;;;112.78;100.55;;;;;;;8.95;45.10;94814.72;5120473;28;20296;-72
2022/12/22 13:25:27;;;;;;;112.63;100.97;;;;;;;8.89;45.95;94820.44;5121392;28;20195;-72
2022/12/22 13:27:57;;;;;;;119.10;106.80;;;;;;;8.84;45.92;94819.91;5119453;28;20204;-72
2022/12/22 13:30:24;;;;;;;111.03;99.50;;;;;;;8.79;45.87;94817.41;5119868;28;20620;-72
2022/12/22 13:32:52;;;;;;;105.35;94.45;;;;;;;8.73;45.33;94814.09;5119637;28;20199;-71
2022/12/22 13:35:21;;;;;;;115.95;104.30;;;;;;;8.68;45.49;94817.88;5120102;28;20206;-72
2022/12/22 13:37:50;;;;;;;116.05;104.63;;;;;;;8.64;45.83;94819.72;5120179;28;20184;-71
2022/12/22 13:40:19;;;;;;;114.85;103.18;;;;;;;8.60;45.85;94818.00;5120038;28;20300;-74
2022/12/22 13:42:47;;;;;;;112.90;101.47;;;;;;;8.55;45.81;94815.50;5120841;27;20190;-72
2022/12/22 13:45:28;;;;;;;112.72;101.10;;;;;;;8.53;45.68;94810.31;5120358;28;20192;-72
2022/12/22 13:47:55;;;;;;;113.65;101.68;;;;;;;8.51;46.03;94811.84;5119594;28;20211;-71
2022/12/22 13:50:24;;;;;;;112.00;100.53;;;;;;;8.48;46.05;94810.56;5118833;28;20191;-71
2022/12/22 13:52:52;;;;;;;110.10;98.97;;;;;;;8.44;46.90;94809.66;5117566;28;20200;-71
2022/12/22 13:55:21;;;;;;;111.55;99.90;;;;;;;8.41;47.13;94807.59;5117953;28;20320;-71
2022/12/22 13:57:48;;;;;;;109.88;98.68;;;;;;;8.36;47.30;94814.09;5117844;28;20195;-71
2022/12/22 14:00:22;;;;;;;120.55;108.28;;;;;;;8.31;47.46;94808.03;5118688;28;20529;-72
2022/12/22 14:02:49;;;;;;;146.25;131.02;;;;;;;8.27;47.27;94796.94;5118872;28;20180;-72
2022/12/22 14:05:16;;;;;;;142.43;127.47;;;;;;;8.25;47.66;94801.97;5118515;28;20192;-71
2022/12/22 14:07:58;;;;;;;156.20;140.35;;;;;;;8.18;47.75;94797.06;5118472;28;20242;-72
2022/12/22 14:10:32;;;;;;;164.05;147.60;;;;;;;8.13;48.17;94799.22;5118364;28;20275;-72
2022/12/22 14:12:59;;;;;;;176.27;158.13;;;;;;;8.08;48.13;94800.25;5117108;28;20320;-72
2022/12/22 14:15:27;;;;;;;177.70;159.07;;;;;;;8.08;48.11;94796.72;5116062;28;20207;-72
2022/12/22 14:17:54;;;;;;;171.57;153.60;;;;;;;8.05;48.93;94795.44;5117028;28;20210;-72
2022/12/22 14:20:24;;;;;;;172.50;154.25;;;;;;;8.00;48.67;94794.91;5117312;28;20574;-72
2022/12/22 14:22:53;;;;;;;164.00;145.93;;;;;;;7.95;48.76;94798.66;5117167;28;20239;-73
2022/12/22 14:25:22;;;;;;;156.45;140.05;;;;;;;7.89;49.36;94798.09;5117176;28;20204;-73
2022/12/22 14:27:53;;;;;;;148.43;132.57;;;;;;;7.83;49.62;94799.44;5118544;28;20203;-72
2022/12/22 14:30:22;;;;;;;152.48;136.00;;;;;;;7.72;50.04;94796.34;5116724;28;20275;-72
2022/12/22 14:32:52;;;;;;;150.73;134.40;;;;;;;7.66;50.32;94800.47;5117269;28;20220;-72
2022/12/22 14:35:26;;;;;;;154.57;137.88;;;;;;;7.57;50.39;94796.22;5117866;28;20253;-72
2022/12/22 14:37:54;;;;;;;158.68;141.77;;;;;;;7.50;50.74;94804.19;5117547;28;20603;-71
2022/12/22 14:40:32;;;;;;;166.43;148.30;;;;;;;7.41;51.78;94801.56;5116939;28;20249;-72
2022/12/22 14:43:00;;;;;;;166.13;148.45;;;;;;;7.28;52.00;94797.97;5117679;28;20202;-71
2022/12/22 14:45:27;;;;;;;157.80;140.45;;;;;;;7.14;52.51;94803.75;5116642;28;20207;-71
2022/12/22 14:47:56;;;;;;;156.30;139.77;;;;;;;7.06;52.66;94809.31;5116506;28;20198;-71
2022/12/22 14:50:24;;;;;;;159.23;141.65;;;;;;;6.96;53.79;94805.84;5116632;28;20200;-71
2022/12/22 14:52:52;;;;;;;167.63;149.32;;;;;;;6.87;54.19;94805.13;5117526;28;20212;-73
2022/12/22 14:55:26;;;;;;;165.32;147.57;;;;;;;6.78;54.17;94809.06;5117594;28;20184;-71
2022/12/22 14:57:55;;;;;;;143.82;128.15;;;;;;;6.69;54.04;94814.63;5117343;28;20184;-72
2022/12/22 15:00:33;;;;;;;148.90;133.15;;;;;;;6.56;54.23;94813.75;5116504;28;20202;-73
2022/12/22 15:03:03;;;;;;;162.27;144.80;;;;;;;6.46;55.01;94814.97;5117553;27;20180;-73
2022/12/22 15:05:36;;;;;;;149.38;133.80;;;;;;;6.45;55.81;94820.75;5117359;27;20184;-73
2022/12/22 15:08:04;;;;;;;126.00;112.20;;;;;;;6.35;56.47;94815.66;5116345;28;20196;-73
2022/12/22 15:10:37;;;;;;;138.52;119.60;;;;;;;6.23;56.40;94813.66;5116244;28;20208;-72
2022/12/22 15:13:06;;;;;;;136.00;121.10;;;;;;;6.08;56.79;94819.69;5116341;28;20226;-72